createdAt,value
2022-11-13T00:04:58.338Z,993.21
2022-11-13T00:16:58.791Z,993.15
2022-11-13T00:28:59.210Z,993.20
2022-11-13T00:40:59.744Z,993.25
2022-11-13T00:53:00.175Z,993.18
2022-11-13T01:05:00.611Z,993.07
2022-11-13T01:17:01.060Z,993.02
2022-11-13T01:29:01.502Z,992.88
2022-11-13T01:41:02.006Z,993.03
2022-11-13T01:53:02.413Z,992.94
2022-11-13T02:05:02.855Z,992.88
2022-11-13T02:17:03.301Z,992.82
2022-11-13T02:29:03.797Z,992.75
2022-11-13T02:41:04.346Z,992.52
2022-11-13T02:53:04.667Z,992.47
2022-11-13T03:05:12.010Z,992.45
2022-11-13T03:17:05.638Z,992.39
2022-11-13T03:29:06.055Z,992.17
2022-11-13T03:41:06.468Z,992.02
2022-11-13T03:53:06.952Z,992.04
2022-11-13T04:05:07.416Z,991.88
2022-11-13T04:17:07.839Z,991.97
2022-11-13T04:29:08.293Z,992.04
2022-11-13T04:41:08.711Z,991.98
2022-11-13T04:53:09.219Z,992.07
2022-11-13T05:05:09.628Z,992.19
2022-11-13T05:17:10.118Z,992.33
2022-11-13T05:29:10.565Z,992.24
2022-11-13T05:41:11.031Z,992.54
2022-11-13T05:53:11.450Z,992.40
2022-11-13T06:05:11.915Z,992.40
2022-11-13T06:17:12.344Z,992.30
2022-11-13T06:29:12.822Z,992.43
2022-11-13T06:41:13.269Z,992.39
2022-11-13T06:53:13.704Z,992.39
2022-11-13T07:05:14.158Z,992.37
2022-11-13T07:17:14.598Z,992.51
2022-11-13T07:29:15.066Z,992.53
2022-11-13T07:41:15.530Z,992.53
2022-11-13T07:53:15.949Z,992.44
2022-11-13T08:05:16.461Z,992.41
2022-11-13T08:17:16.852Z,992.46
2022-11-13T08:29:17.320Z,992.49
2022-11-13T08:41:17.797Z,992.59
2022-11-13T09:10:48.912Z,992.46
2022-11-13T09:22:49.334Z,992.39
2022-11-13T09:34:49.824Z,992.46
2022-11-13T09:46:50.267Z,992.31
2022-11-13T09:58:50.750Z,992.21
2022-11-13T10:10:55.449Z,992.13
2022-11-13T10:22:51.620Z,992.00
2022-11-13T10:34:52.075Z,991.74
2022-11-13T10:46:52.563Z,991.56
2022-11-13T10:58:53.002Z,991.40
2022-11-13T11:10:53.432Z,991.12
2022-11-13T11:22:53.867Z,990.92
2022-11-13T11:34:58.996Z,990.86
2022-11-13T11:46:54.818Z,990.69
2022-11-13T11:58:55.258Z,990.64
2022-11-13T12:10:55.704Z,990.63
2022-11-13T12:22:56.206Z,990.49
2022-11-13T12:34:56.630Z,990.37
2022-11-13T12:46:57.098Z,990.35
2022-11-13T12:59:23.752Z,990.38
2022-11-13T13:10:58.011Z,990.21
2022-11-13T13:22:58.452Z,990.16
2022-11-13T13:34:58.914Z,990.12
2022-11-13T13:46:59.360Z,990.09
2022-11-13T13:58:59.843Z,990.00
2022-11-13T14:11:00.285Z,989.91
2022-11-13T14:23:00.747Z,989.83
2022-11-13T14:35:01.188Z,989.77
2022-11-13T14:47:01.661Z,989.67
2022-11-13T14:59:02.098Z,989.53
2022-11-13T15:11:02.557Z,989.45
2022-11-13T15:23:03.001Z,989.54
2022-11-13T15:35:03.479Z,989.38
2022-11-13T15:47:03.916Z,989.40
2022-11-13T15:59:04.367Z,989.44
2022-11-13T16:11:04.888Z,989.46
2022-11-13T16:23:05.293Z,989.46
2022-11-13T16:35:05.707Z,989.59
2022-11-13T16:47:06.167Z,989.64
2022-11-13T16:59:06.591Z,989.64
2022-11-13T17:11:07.104Z,989.54
2022-11-13T17:23:07.655Z,989.60
2022-11-13T17:35:08.170Z,989.53
2022-11-13T17:59:09.175Z,989.47
2022-11-13T18:11:09.472Z,989.52
2022-11-13T18:23:09.779Z,989.45
2022-11-13T18:35:10.215Z,989.49
2022-11-13T18:47:10.724Z,989.53
2022-11-13T18:59:11.168Z,989.50
2022-11-13T19:11:11.615Z,989.42
2022-11-13T19:23:12.069Z,989.48
2022-11-13T19:35:12.517Z,989.38
2022-11-13T19:47:12.983Z,989.32
2022-11-13T19:59:13.388Z,989.33
2022-11-13T20:11:13.875Z,989.39
2022-11-13T20:23:14.313Z,989.25
2022-11-13T20:35:14.778Z,989.18
2022-11-13T20:47:15.189Z,989.07
2022-11-13T20:59:15.663Z,988.98
2022-11-13T21:11:16.132Z,989.01
2022-11-13T21:23:16.578Z,988.95
2022-11-13T21:35:22.342Z,989.05
2022-11-13T21:47:17.443Z,988.85
2022-11-13T21:59:17.955Z,988.72
2022-11-13T22:11:18.384Z,988.58
2022-11-13T22:23:18.831Z,988.60
2022-11-13T22:35:19.280Z,988.37
2022-11-13T22:47:19.754Z,988.32
2022-11-13T22:59:20.135Z,988.32
2022-11-13T23:11:20.628Z,988.14
2022-11-13T23:23:21.087Z,988.12
2022-11-13T23:35:21.561Z,988.20
2022-11-13T23:47:21.993Z,988.14
2022-11-13T23:59:22.457Z,988.06
